Time;durP1;ratioP1;P1;durP2;ratioP2;P2;SDS_P1;SDS_P2;PMS_P1;PMS_P2;Temp;Humidity;BMP_temperature;BMP_pressure;BME280_temperature;BME280_humidity;BME280_pressure;Samples;Min_cycle;Max_cycle;Signal;HPM_P1;HPM_P2
2023/01/26 00:05:32;;;;;;;91.60;30.00;;;;;;;1.35;100.00;101370.89;216640;1300;139282;-88
2023/01/26 00:11:33;;;;;;;100.00;33.70;;;;;;;1.35;100.00;101365.94;216057;1298;139562;-87
2023/01/26 00:17:37;;;;;;;87.80;29.80;;;;;;;1.34;100.00;101364.61;216652;1299;139576;-87
2023/01/26 00:23:35;;;;;;;92.10;32.10;;;;;;;1.34;100.00;101361.04;216194;1298;139447;-87
2023/01/26 00:35:36;;;;;;;89.70;29.90;;;;;;;1.34;100.00;101350.28;216684;1299;138946;-87
2023/01/26 00:47:33;;;;;;;91.00;29.40;;;;;;;1.34;100.00;101341.89;216867;1298;138998;-87
2023/01/26 00:53:33;;;;;;;71.80;26.70;;;;;;;1.32;100.00;101343.27;216123;1299;139148;-86
2023/01/26 00:59:33;;;;;;;;;;;;;;;;;;;;;
2023/01/26 01:05:36;;;;;;;88.70;28.90;;;;;;;1.31;100.00;101338.52;216674;1298;139436;-87
2023/01/26 01:11:44;;;;;;;96.60;32.20;;;;;;;1.33;100.00;101335.07;216196;1299;139704;-87
2023/01/26 01:17:36;;;;;;;;;;;;;;;;;;;;;
2023/01/26 01:23:38;;;;;;;;;;;;;;;;;;;;;
2023/01/26 01:29:44;;;;;;;;;;;;;;;;;;;;;
2023/01/26 01:35:39;;;;;;;;;;;;;;;;;;;;;
2023/01/26 01:41:48;;;;;;;66.40;23.60;;;;;;;1.32;100.00;101310.73;216129;1299;139410;-88
2023/01/26 01:47:51;;;;;;;;;;;;;;;;;;;;;
2023/01/26 01:54:00;;;;;;;85.10;28.50;;;;;;;1.34;100.00;101299.73;216211;1298;139137;-87
2023/01/26 01:59:59;;;;;;;;;;;;;;;;;;;;;
2023/01/26 02:06:02;;;;;;;70.60;24.40;;;;;;;1.34;100.00;101280.70;216707;1298;139756;-87
2023/01/26 02:12:12;;;;;;;67.60;22.40;;;;;;;1.35;100.00;101267.02;215848;1298;139620;-87
2023/01/26 02:18:00;;;;;;;70.40;24.00;;;;;;;1.31;100.00;101263.13;216670;1299;139632;-88
2023/01/26 02:24:04;;;;;;;75.20;24.40;;;;;;;1.30;100.00;101252.41;216337;1299;138993;-88
2023/01/26 02:29:57;;;;;;;79.30;23.70;;;;;;;1.32;100.00;101243.84;216209;1298;139476;-88
2023/01/26 02:35:35;;;;;;;80.50;28.00;;;;;;;1.33;100.00;101241.77;216810;1299;139069;-88
2023/01/26 02:47:30;;;;;;;78.40;27.10;;;;;;;1.32;100.00;101232.40;216257;1299;139742;-87
2023/01/26 02:59:33;;;;;;;72.50;24.30;;;;;;;1.34;100.00;101226.56;216291;1299;139852;-87
2023/01/26 03:05:35;;;;;;;70.80;25.00;;;;;;;1.35;100.00;101221.72;216642;1299;139417;-87
2023/01/26 03:12:00;;;;;;;64.90;21.40;;;;;;;1.34;100.00;101218.39;216289;1299;138884;-87
2023/01/26 03:17:36;;;;;;;63.80;24.50;;;;;;;1.35;100.00;101214.89;216610;1299;139012;-88
2023/01/26 03:29:37;;;;;;;70.00;22.90;;;;;;;1.37;100.00;101208.26;216393;1299;139631;-87
2023/01/26 03:35:07;;;;;;;69.50;24.60;;;;;;;1.38;100.00;101198.09;216732;1299;139442;-87
2023/01/26 03:58:57;;;;;;;70.30;24.30;;;;;;;1.36;100.00;101173.91;216910;1299;139304;-87
2023/01/26 04:10:55;;;;;;;;;;;;;;;;;;;;;
2023/01/26 04:22:58;;;;;;;68.80;25.80;;;;;;;1.36;100.00;101165.84;216305;1298;139730;-88
2023/01/26 04:28:59;;;;;;;56.30;22.90;;;;;;;1.38;100.00;101157.57;216746;1299;139773;-88
2023/01/26 04:35:00;;;;;;;73.40;28.10;;;;;;;1.38;100.00;101156.96;216824;1298;139123;-87
2023/01/26 04:41:02;;;;;;;58.00;21.00;;;;;;;1.41;100.00;101152.41;216298;1299;139251;-88
2023/01/26 04:46:59;;;;;;;58.20;22.70;;;;;;;1.39;100.00;101145.19;216796;1299;139107;-87
2023/01/26 04:53:01;;;;;;;57.80;20.90;;;;;;;1.37;100.00;101136.88;216284;1297;139268;-86
2023/01/26 04:59:02;;;;;;;66.10;23.70;;;;;;;1.35;100.00;101136.36;216210;1298;139832;-87
2023/01/26 05:05:03;;;;;;;63.90;22.20;;;;;;;1.35;100.00;101135.55;216694;1299;139733;-87
2023/01/26 05:11:04;;;;;;;62.30;23.80;;;;;;;1.38;100.00;101137.45;216224;1299;139710;-86
2023/01/26 05:16:58;;;;;;;;;;;;;;;;;;;;;
2023/01/26 05:23:07;;;;;;;56.50;22.50;;;;;;;1.39;100.00;101128.10;216087;1299;139080;-88
2023/01/26 05:28:59;;;;;;;;;;;;;;;;;;;;;
2023/01/26 05:35:09;;;;;;;55.80;21.70;;;;;;;1.41;100.00;101117.44;216636;1298;139246;-87
2023/01/26 05:47:11;;;;;;;64.30;24.70;;;;;;;1.43;100.00;101123.21;216641;1300;139459;-87
2023/01/26 05:53:05;;;;;;;;;;;;;;;;;;;;;
2023/01/26 05:59:14;;;;;;;62.70;23.90;;;;;;;1.43;100.00;101116.42;216117;1298;139415;-87
2023/01/26 06:05:15;;;;;;;67.30;25.00;;;;;;;1.43;100.00;101117.13;216645;1299;139147;-88
2023/01/26 06:11:16;;;;;;;64.60;23.90;;;;;;;1.42;100.00;101118.30;216205;1298;139299;-88
2023/01/26 06:17:18;;;;;;;64.80;22.80;;;;;;;1.43;100.00;101122.16;212807;1299;5347879;-87
2023/01/26 06:23:19;;;;;;;64.40;23.40;;;;;;;1.44;100.00;101119.71;216236;1298;141342;-88
2023/01/26 06:29:20;;;;;;;58.20;21.90;;;;;;;1.43;100.00;101113.65;216269;1298;141065;-88
2023/01/26 06:35:21;;;;;;;61.00;22.80;;;;;;;1.41;100.00;101118.31;216690;1299;139233;-86
2023/01/26 06:41:22;;;;;;;51.40;20.80;;;;;;;1.39;100.00;101125.77;216271;1299;139831;-85
2023/01/26 06:47:23;;;;;;;61.70;22.40;;;;;;;1.36;100.00;101113.58;216771;1298;139551;-85
2023/01/26 06:53:51;;;;;;;48.20;18.70;;;;;;;1.37;100.00;101112.84;216137;1299;140129;-85
2023/01/26 06:59:37;;;;;;;55.20;19.10;;;;;;;1.35;100.00;101121.44;216055;1299;140003;-86
2023/01/26 07:05:38;;;;;;;44.30;17.40;;;;;;;1.34;100.00;101127.04;216594;1299;139808;-86
2023/01/26 07:11:31;;;;;;;;;;;;;;;;;;;;;
2023/01/26 07:17:40;;;;;;;52.10;20.80;;;;;;;1.36;100.00;101115.67;216698;1298;139480;-85
2023/01/26 07:23:41;;;;;;;46.30;17.50;;;;;;;1.36;100.00;101117.95;216273;1299;139206;-84
2023/01/26 07:29:43;;;;;;;59.60;24.90;;;;;;;1.36;100.00;101117.57;216231;1299;139642;-84
2023/01/26 07:35:34;;;;;;;;;;;;;;;;;;;;;
2023/01/26 07:41:36;;;;;;;55.60;23.40;;;;;;;1.43;100.00;101121.79;216206;1299;139894;-86
2023/01/26 07:47:38;;;;;;;47.70;20.00;;;;;;;1.41;100.00;101127.52;216751;1299;139316;-85
2023/01/26 07:53:38;;;;;;;;;;;;;;;;;;;;;
2023/01/26 07:59:29;;;;;;;;;;;;;;;;;;;;;
2023/01/26 08:05:39;;;;;;;;;;;;;;;;;;;;;
2023/01/26 08:11:42;;;;;;;53.50;20.10;;;;;;;1.49;100.00;101123.73;216084;1298;140039;-85
2023/01/26 08:17:43;;;;;;;43.90;17.40;;;;;;;1.46;100.00;101118.20;216790;1297;140378;-86
2023/01/26 08:23:36;;;;;;;;;;;;;;;;;;;;;
2023/01/26 08:29:46;;;;;;;45.10;17.70;;;;;;;1.48;100.00;101111.59;216254;1298;139389;-87
2023/01/26 08:35:47;;;;;;;36.00;15.00;;;;;;;1.48;100.00;101110.35;216766;1298;138914;-85
2023/01/26 08:41:47;;;;;;;;;;;;;;;;;;;;;
2023/01/26 08:47:45;;;;;;;50.40;18.30;;;;;;;1.53;100.00;101102.98;216793;1298;138881;-85
2023/01/26 08:59:47;;;;;;;41.80;15.10;;;;;;;1.54;100.00;101115.28;216272;1298;139756;-85
2023/01/26 09:05:48;;;;;;;43.00;15.80;;;;;;;1.59;100.00;101115.17;216591;1298;139369;-86
2023/01/26 09:11:49;;;;;;;43.20;15.60;;;;;;;1.62;100.00;101116.48;216147;1300;139111;-83
2023/01/26 09:17:48;;;;;;;;;;;;;;;;;;;;;
2023/01/26 09:23:52;;;;;;;45.00;15.80;;;;;;;1.72;100.00;101122.14;216301;1299;139157;-85
2023/01/26 09:29:51;;;;;;;;;;;;;;;;;;;;;
2023/01/26 09:35:54;;;;;;;37.10;14.30;;;;;;;1.79;100.00;101125.48;216747;1299;139087;-84
2023/01/26 09:41:55;;;;;;;;;;;;;;;;;;;;;
2023/01/26 09:48:08;;;;;;;39.60;15.80;;;;;;;1.88;100.00;101121.66;216790;1298;138862;-84
2023/01/26 09:54:20;;;;;;;;;;;;;;;;;;;;;
2023/01/26 10:00:27;;;;;;;;;;;;;;;;;;;;;
2023/01/26 10:07:01;;;;;;;44.90;16.50;;;;;;;1.96;100.00;101114.21;216656;1299;139090;-84
2023/01/26 10:13:09;;;;;;;;;;;;;;;;;;;;;
2023/01/26 10:19:04;;;;;;;;;;;;;;;;;;;;;
2023/01/26 10:25:05;;;;;;;;;;;;;;;;;;;;;
2023/01/26 10:31:14;;;;;;;35.60;13.80;;;;;;;2.00;100.00;101094.64;216095;1299;139497;-83
2023/01/26 10:37:07;;;;;;;;;;;;;;;;;;;;;
2023/01/26 10:43:16;;;;;;;49.80;17.70;;;;;;;2.00;100.00;101081.07;216098;1298;140040;-84
2023/01/26 10:49:18;;;;;;;49.90;18.10;;;;;;;2.01;100.00;101073.61;216230;1299;141235;-84
2023/01/26 10:55:19;;;;;;;37.60;16.90;;;;;;;2.02;100.00;101063.44;216751;1299;113577;-85
2023/01/26 11:01:26;;;;;;;42.30;15.40;;;;;;;2.05;100.00;101066.40;216361;1300;139247;-84
2023/01/26 11:07:27;;;;;;;34.00;14.80;;;;;;;2.05;100.00;101056.85;216894;1298;111170;-82
2023/01/26 11:13:29;;;;;;;34.40;12.70;;;;;;;2.01;100.00;101052.33;216232;1302;139227;-83
2023/01/26 11:19:36;;;;;;;35.10;13.60;;;;;;;1.95;100.00;101053.59;216022;1299;139552;-83
2023/01/26 11:31:52;;;;;;;33.90;13.00;;;;;;;1.97;100.00;101031.26;216348;1302;138938;-84
2023/01/26 11:38:14;;;;;;;36.60;15.70;;;;;;;1.99;100.00;101027.02;216877;1299;111663;-84
2023/01/26 11:44:21;;;;;;;37.60;14.50;;;;;;;2.00;100.00;101016.85;216419;1300;139461;-84
2023/01/26 11:50:31;;;;;;;47.60;18.50;;;;;;;2.01;100.00;101009.98;216364;1298;139719;-84
2023/01/26 11:56:18;;;;;;;36.70;15.40;;;;;;;2.00;100.00;101002.52;216828;1298;111139;-84
2023/01/26 12:02:27;;;;;;;41.30;14.90;;;;;;;1.97;100.00;100999.27;216314;1298;138844;-84
2023/01/26 12:08:37;;;;;;;39.40;14.90;;;;;;;1.93;100.00;100997.45;216774;1300;111088;-84
2023/01/26 12:14:53;;;;;;;41.60;15.40;;;;;;;1.90;100.00;100985.04;216634;1299;138432;-85
2023/01/26 12:20:50;;;;;;;;;;;;;;;;;;;;;
2023/01/26 12:26:57;;;;;;;;;;;;;;;;;;;;;
2023/01/26 12:32:59;;;;;;;41.50;17.10;;;;;;;1.89;100.00;100971.34;216367;1298;139593;-85
2023/01/26 12:39:03;;;;;;;47.60;18.30;;;;;;;1.85;100.00;100979.67;216781;1299;111154;-84
2023/01/26 12:45:19;;;;;;;51.50;21.00;;;;;;;1.81;100.00;100981.45;216635;1299;111182;-85
2023/01/26 12:51:38;;;;;;;47.20;17.00;;;;;;;1.78;100.00;100973.44;216246;1299;138911;-85
2023/01/26 12:57:41;;;;;;;43.50;16.60;;;;;;;1.77;100.00;100973.55;216646;1299;111762;-85
2023/01/26 13:03:37;;;;;;;;;;;;;;;;;;;;;
2023/01/26 13:09:39;;;;;;;44.80;19.20;;;;;;;1.70;100.00;100960.63;216194;1300;139317;-86
2023/01/26 13:15:41;;;;;;;;;;;;;;;;;;;;;
2023/01/26 13:21:41;;;;;;;;;;;;;;;;;;;;;
2023/01/26 13:27:47;;;;;;;49.90;18.20;;;;;;;1.67;100.00;100965.02;216685;1299;111822;-84
2023/01/26 13:33:43;;;;;;;;;;;;;;;;;;;;;
2023/01/26 13:45:55;;;;;;;45.60;19.30;;;;;;;1.72;100.00;100965.75;216806;1299;113105;-86
2023/01/26 13:51:59;;;;;;;60.40;24.90;;;;;;;1.69;100.00;100973.59;216357;1299;138894;-86
2023/01/26 13:57:59;;;;;;;49.80;22.50;;;;;;;1.67;100.00;100968.91;216868;1298;110187;-86
2023/01/26 14:04:03;;;;;;;50.80;23.70;;;;;;;1.69;100.00;100960.02;216133;1299;139483;-85
2023/01/26 14:10:04;;;;;;;52.00;19.90;;;;;;;1.69;100.00;100966.36;216356;1298;140225;-85
2023/01/26 14:16:08;;;;;;;49.30;18.60;;;;;;;1.65;100.00;100967.55;216824;1298;111302;-86
2023/01/26 14:22:24;;;;;;;45.30;18.50;;;;;;;1.59;100.00;100962.61;216163;1299;139611;-87
2023/01/26 14:28:12;;;;;;;51.30;19.90;;;;;;;1.59;100.00;100962.09;216686;1298;111414;-86
2023/01/26 14:34:05;;;;;;;;;;;;;;;;;;;;;
2023/01/26 14:40:10;;;;;;;;;;;;;;;;;;;;;
2023/01/26 14:46:12;;;;;;;;;;;;;;;;;;;;;
2023/01/26 14:52:11;;;;;;;;;;;;;;;;;;;;;
2023/01/26 14:58:11;;;;;;;;;;;;;;;;;;;;;
2023/01/26 15:04:14;;;;;;;51.80;21.50;;;;;;;1.52;100.00;100977.31;216124;1298;140663;-87
2023/01/26 15:10:22;;;;;;;44.60;18.00;;;;;;;1.51;100.00;100974.30;216209;1299;139216;-85
2023/01/26 15:16:21;;;;;;;;;;;;;;;;;;;;;
2023/01/26 15:22:17;;;;;;;54.70;25.00;;;;;;;1.50;100.00;100973.52;216289;1299;140143;-86
2023/01/26 15:28:03;;;;;;;53.30;22.40;;;;;;;1.50;100.00;100962.60;216538;1299;138806;-86
2023/01/26 15:34:01;;;;;;;;;;;;;;;;;;;;;
2023/01/26 15:40:10;;;;;;;48.00;18.40;;;;;;;1.48;100.00;100960.73;216261;1298;139328;-88
2023/01/26 15:46:15;;;;;;;43.40;18.40;;;;;;;1.50;100.00;100962.83;216791;1299;139054;-90
2023/01/26 15:58:17;;;;;;;54.20;26.70;;;;;;;1.49;100.00;100967.52;216828;1298;138965;-89
2023/01/26 16:04:18;;;;;;;53.50;25.70;;;;;;;1.47;100.00;100971.77;216224;1299;139843;-88
2023/01/26 16:10:19;;;;;;;49.00;25.70;;;;;;;1.46;100.00;100970.67;216162;1298;139307;-89
2023/01/26 16:16:31;;;;;;;;;;;;;;;;;;;;;
2023/01/26 16:22:25;;;;;;;;;;;;;;;;;;;;;
2023/01/26 16:28:19;;;;;;;56.00;28.20;;;;;;;1.45;100.00;100972.04;216574;1299;139481;-89
2023/01/26 16:40:22;;;;;;;54.20;25.40;;;;;;;1.47;100.00;100964.14;216049;1299;139173;-89
2023/01/26 16:46:23;;;;;;;62.00;33.20;;;;;;;1.46;100.00;100960.36;216734;1299;138763;-89
2023/01/26 16:52:24;;;;;;;48.90;25.60;;;;;;;1.45;100.00;100964.12;216114;1299;139376;-89
2023/01/26 16:58:26;;;;;;;45.20;24.20;;;;;;;1.43;100.00;100960.75;216669;1298;139062;-90
2023/01/26 17:04:27;;;;;;;50.40;23.50;;;;;;;1.42;100.00;100957.73;216231;1299;139687;-89
2023/01/26 17:10:26;;;;;;;;;;;;;;;;;;;;;
2023/01/26 17:16:35;;;;;;;50.70;21.80;;;;;;;1.38;100.00;100973.61;216901;1299;105982;-89
2023/01/26 17:29:14;;;;;;;63.00;22.20;;;;;;;1.35;100.00;100983.21;215383;1305;105023;-90
2023/01/26 17:34:56;;;;;;;73.50;26.50;;;;;;;1.33;100.00;100988.52;216618;1299;105007;-88
2023/01/26 17:40:58;;;;;;;75.40;24.80;;;;;;;1.33;100.00;100991.23;216151;1299;139393;-88
2023/01/26 17:47:32;;;;;;;75.50;26.10;;;;;;;1.34;100.00;100991.54;216701;1298;104958;-89
2023/01/26 17:53:09;;;;;;;67.00;23.10;;;;;;;1.35;100.00;100988.09;216253;1299;139197;-89
2023/01/26 17:59:05;;;;;;;52.00;21.50;;;;;;;1.37;100.00;100990.45;216250;1299;139360;-88
2023/01/26 18:05:07;;;;;;;50.80;22.90;;;;;;;1.37;100.00;100993.58;216764;1299;104583;-90
2023/01/26 18:11:11;;;;;;;52.30;21.90;;;;;;;1.34;100.00;100991.24;216329;1297;141127;-90
2023/01/26 18:17:24;;;;;;;;;;;;;;;;;;;;;
2023/01/26 18:23:14;;;;;;;44.00;18.20;;;;;;;1.30;100.00;100995.73;212206;1298;139411;-90
2023/01/26 18:29:16;;;;;;;46.20;20.00;;;;;;;1.28;100.00;101007.70;216422;1298;140340;-88
2023/01/26 18:35:16;;;;;;;49.70;20.40;;;;;;;1.30;100.00;101015.30;216735;1299;140027;-90
2023/01/26 18:41:09;;;;;;;;;;;;;;;;;;;;;
2023/01/26 18:47:19;;;;;;;50.00;20.60;;;;;;;1.35;100.00;101016.02;216722;1298;138904;-89
2023/01/26 18:53:11;;;;;;;;;;;;;;;;;;;;;
2023/01/26 18:59:15;;;;;;;49.00;20.30;;;;;;;1.33;100.00;101027.35;216192;1299;139746;-90
2023/01/26 19:05:21;;;;;;;51.70;20.50;;;;;;;1.31;100.00;101022.00;216715;1299;139231;-90
2023/01/26 19:11:22;;;;;;;47.60;19.30;;;;;;;1.33;100.00;101030.38;216194;1299;139503;-90
2023/01/26 19:17:24;;;;;;;45.10;19.00;;;;;;;1.35;100.00;101029.95;216843;1299;138875;-91
2023/01/26 19:23:25;;;;;;;45.30;17.70;;;;;;;1.34;100.00;101029.27;216354;1299;139258;-90
2023/01/26 19:29:27;;;;;;;46.20;20.50;;;;;;;1.34;100.00;101023.20;216435;1299;139045;-90
2023/01/26 19:35:27;;;;;;;48.80;19.00;;;;;;;1.35;100.00;101021.88;216672;1299;139552;-90
2023/01/26 19:41:29;;;;;;;49.20;20.40;;;;;;;1.32;100.00;101010.98;216320;1299;139584;-90
2023/01/26 19:47:23;;;;;;;;;;;;;;;;;;;;;
2023/01/26 19:53:28;;;;;;;56.10;21.30;;;;;;;1.31;100.00;101010.80;216121;1298;139178;-89
2023/01/26 19:59:29;;;;;;;46.50;17.90;;;;;;;1.29;100.00;101006.77;216256;1299;139921;-88
2023/01/26 20:05:31;;;;;;;45.70;16.70;;;;;;;1.28;100.00;101006.89;216724;1299;139297;-90
2023/01/26 20:11:32;;;;;;;46.40;18.60;;;;;;;1.27;100.00;101011.36;216169;1299;139448;-88
2023/01/26 20:17:33;;;;;;;43.90;17.80;;;;;;;1.29;100.00;101014.63;216815;1299;96246;-90
2023/01/26 20:23:33;;;;;;;;;;;;;;;;;;;;;
2023/01/26 20:29:36;;;;;;;49.10;18.30;;;;;;;1.29;100.00;101014.89;216378;1298;139518;-90
2023/01/26 20:35:38;;;;;;;43.70;14.90;;;;;;;1.26;100.00;101014.56;216802;1299;96347;-90
2023/01/26 20:53:40;;;;;;;;;;;;;;;;;;;;;
2023/01/26 20:59:43;;;;;;;53.50;20.90;;;;;;;1.29;100.00;101015.39;216201;1299;140526;-91
2023/01/26 21:05:44;;;;;;;57.60;20.20;;;;;;;1.27;100.00;101022.08;216844;1299;96954;-89
2023/01/26 21:11:38;;;;;;;;;;;;;;;;;;;;;
2023/01/26 21:17:47;;;;;;;52.40;19.30;;;;;;;1.21;100.00;101021.08;216741;1299;139056;-90
2023/01/26 21:23:46;;;;;;;;;;;;;;;;;;;;;
2023/01/26 21:35:49;;;;;;;45.70;17.00;;;;;;;1.18;100.00;101015.11;216668;1299;139283;-88
2023/01/26 21:58:52;;;;;;;54.80;18.60;;;;;;;1.24;100.00;101004.11;213274;1296;637727;-89
2023/01/26 22:03:24;;;;;;;53.00;18.30;;;;;;;1.23;100.00;101011.17;212020;1301;137853;-88
2023/01/26 22:09:28;;;;;;;50.40;17.10;;;;;;;1.22;100.00;101019.20;208731;1296;5366083;-90
2023/01/26 22:15:29;;;;;;;42.50;15.30;;;;;;;1.21;100.00;101010.14;213032;1297;138414;-87
2023/01/26 22:21:31;;;;;;;;;;;;;;;;;;;;;
2023/01/26 22:27:34;;;;;;;46.40;17.10;;;;;;;1.18;100.00;100998.77;213092;1297;137989;-89
2023/01/26 22:32:57;;;;;;;48.70;17.60;;;;;;;1.18;100.00;100999.00;212584;1296;138259;-90
2023/01/26 22:38:48;;;;;;;46.30;16.50;;;;;;;1.17;100.00;101001.58;213897;1296;138162;-89
2023/01/26 22:44:20;;;;;;;48.10;18.00;;;;;;;1.18;100.00;101005.46;214019;1294;138157;-91
2023/01/26 22:50:04;;;;;;;37.40;14.20;;;;;;;1.16;100.00;101009.50;213753;1293;138070;-90
2023/01/26 22:55:57;;;;;;;;;;;;;;;;;;;;;
2023/01/26 23:02:03;;;;;;;;;;;;;;;;;;;;;
2023/01/26 23:08:05;;;;;;;45.60;15.20;;;;;;;1.11;100.00;101000.67;212996;1294;138388;-89
2023/01/26 23:14:06;;;;;;;51.20;16.80;;;;;;;1.08;100.00;101002.89;212692;1296;138918;-86
2023/01/26 23:20:00;;;;;;;;;;;;;;;;;;;;;
2023/01/26 23:32:10;;;;;;;42.60;15.30;;;;;;;1.06;100.00;101004.01;212514;1298;138878;-86
2023/01/26 23:38:05;;;;;;;35.40;12.60;;;;;;;1.09;100.00;101000.96;212939;1294;138145;-86
2023/01/26 23:44:04;;;;;;;34.30;12.60;;;;;;;1.10;100.00;100992.65;212544;1294;138828;-85
2023/01/26 23:50:05;;;;;;;38.20;12.50;;;;;;;1.12;100.00;100992.08;212376;1293;138876;-86
2023/01/26 23:55:52;;;;;;;35.50;13.60;;;;;;;1.12;100.00;100988.55;212857;1294;138348;-85
